Portsmouth, Virginia
Current Conditions -  °F | °C
As of 7:59 PM on Tuesday 21 Oct 2014 (Local Time) from KNGU Reporting Station
Overcast Overcast  
Wind Chill: 67°   Ceiling: 10000
Heat Index: 67°   Visibility: 10mi
Dew Point: 53°   Wind: 3mph
Humidity: 61%   Direction: 190°S
Pressure: 29.85"   Gusts: NA
Location:  36.83°N, 76.3°W
Report Text: KNGU 212359Z 19003KT 10SM OVC100 19/12 A2985 RMK AO2 SLP107 T01940117 10244 20189 53009 $
Loading
Personal Weather Stations






























Interactive Weather Map
Tropical Storm Tracking
New forecast layout! Learn more

10-Day Weather Forecast

Advertisements
Track Severe Weather on mobile